createdAt,value
2022-10-06T00:00:50.080Z,18.55
2022-10-06T00:03:39.268Z,18.23
2022-10-06T00:06:28.046Z,19.25
2022-10-06T00:09:10.432Z,17.50
2022-10-06T00:11:59.012Z,17.50
2022-10-06T00:14:41.321Z,17.75
2022-10-06T00:17:30.026Z,17.50
2022-10-06T00:20:13.365Z,18.08
2022-10-06T00:23:02.028Z,18.45
2022-10-06T00:25:44.297Z,19.10
2022-10-06T00:28:33.533Z,18.15
2022-10-06T00:31:17.299Z,18.25
2022-10-06T00:34:06.023Z,16.48
2022-10-06T00:36:48.318Z,16.65
2022-10-06T00:39:37.279Z,17.10
2022-10-06T00:42:37.319Z,16.92
2022-10-06T00:45:29.072Z,17.45
2022-10-06T00:48:17.307Z,16.65
2022-10-06T00:51:07.046Z,17.20
2022-10-06T00:53:50.326Z,15.82
2022-10-06T00:56:40.057Z,16.75
2022-10-06T00:59:26.353Z,16.70
2022-10-06T01:02:26.100Z,17.00
2022-10-06T01:05:23.869Z,17.08
2022-10-06T01:08:13.015Z,17.33
2022-10-06T01:10:55.306Z,16.50
2022-10-06T01:13:45.140Z,15.73
2022-10-06T01:16:33.290Z,16.45
2022-10-06T01:19:55.012Z,17.05
2022-10-06T01:23:21.323Z,16.42
2022-10-06T01:26:15.345Z,17.38
2022-10-06T01:28:59.008Z,17.23
2022-10-06T01:31:47.924Z,16.85
2022-10-06T01:34:37.994Z,16.67
2022-10-06T01:37:20.184Z,17.10
2022-10-06T01:40:10.062Z,16.65
2022-10-06T01:42:59.302Z,15.60
2022-10-06T01:45:42.063Z,15.95
2022-10-06T01:48:31.657Z,17.03
2022-10-06T01:51:17.034Z,16.70
2022-10-06T01:54:05.914Z,17.75
2022-10-06T01:56:55.037Z,16.98
2022-10-06T01:59:43.309Z,18.13
2022-10-06T02:02:25.999Z,17.75
2022-10-06T02:05:22.874Z,18.65
2022-10-06T02:08:12.066Z,17.48
2022-10-06T02:10:55.305Z,18.23
2022-10-06T02:13:46.052Z,17.02
2022-10-06T02:16:28.415Z,17.83
2022-10-06T02:19:17.008Z,18.48
2022-10-06T02:21:59.594Z,17.95
2022-10-06T02:24:48.027Z,18.38
2022-10-06T02:27:36.909Z,18.08
2022-10-06T02:30:28.062Z,16.70
2022-10-06T02:33:11.445Z,18.45
2022-10-06T02:36:03.990Z,18.10
2022-10-06T02:38:47.304Z,17.48
2022-10-06T02:41:36.009Z,18.95
2022-10-06T02:44:24.919Z,19.25
2022-10-06T02:47:14.014Z,18.45
2022-10-06T02:50:04.029Z,19.02
2022-10-06T02:52:47.005Z,18.17
2022-10-06T02:55:35.994Z,18.08
2022-10-06T02:58:25.259Z,18.25
2022-10-06T03:01:14.292Z,17.42
2022-10-06T03:04:03.070Z,16.15
2022-10-06T03:06:52.288Z,16.30
2022-10-06T03:09:39.019Z,13.68
2022-10-06T03:12:28.006Z,13.70
2022-10-06T03:15:10.289Z,13.38
2022-10-06T03:18:00.021Z,13.05
2022-10-06T03:20:49.910Z,13.68
2022-10-06T03:23:39.066Z,13.75
2022-10-06T03:26:23.576Z,13.63
2022-10-06T03:29:15.687Z,13.32
2022-10-06T03:32:02.325Z,13.00
2022-10-06T03:34:54.026Z,12.73
2022-10-06T03:37:37.461Z,13.48
2022-10-06T03:40:25.996Z,15.13
2022-10-06T03:43:08.307Z,13.50
2022-10-06T03:46:05.005Z,12.45
2022-10-06T03:48:54.939Z,13.38
2022-10-06T03:51:47.996Z,13.43
2022-10-06T03:54:41.019Z,12.60
2022-10-06T03:57:30.004Z,12.73
2022-10-06T04:00:19.992Z,14.23
2022-10-06T04:03:09.077Z,13.90
2022-10-06T04:06:06.287Z,13.00
2022-10-06T04:08:50.029Z,11.48
2022-10-06T04:11:35.893Z,11.00
2022-10-06T04:14:28.021Z,12.32
2022-10-06T04:17:11.244Z,13.50
2022-10-06T04:19:59.992Z,13.27
2022-10-06T04:22:42.205Z,13.20
2022-10-06T04:25:35.436Z,13.77
2022-10-06T04:28:18.279Z,13.10
2022-10-06T04:31:15.039Z,13.38
2022-10-06T04:34:06.012Z,13.27
2022-10-06T04:36:50.277Z,14.20
2022-10-06T04:42:31.299Z,13.67
2022-10-06T04:45:21.227Z,12.38
2022-10-06T04:48:10.244Z,12.90
2022-10-06T04:51:19.987Z,14.30
2022-10-06T04:54:11.020Z,13.48
2022-10-06T04:56:54.255Z,12.90
2022-10-06T05:00:07.060Z,13.45
2022-10-06T05:03:03.990Z,12.48
2022-10-06T05:06:00.071Z,12.45
2022-10-06T05:08:42.814Z,13.55
2022-10-06T05:11:32.993Z,13.57
2022-10-06T05:14:17.448Z,12.55
2022-10-06T05:17:05.997Z,13.35
2022-10-06T05:19:48.326Z,13.73
2022-10-06T05:22:38.014Z,14.32
2022-10-06T05:25:20.192Z,13.82
2022-10-06T05:28:09.066Z,12.65
2022-10-06T05:31:10.288Z,13.27
2022-10-06T05:33:54.091Z,11.80
2022-10-06T05:36:44.271Z,12.13
2022-10-06T05:39:27.017Z,12.18
2022-10-06T05:42:09.205Z,12.52
2022-10-06T05:44:58.069Z,12.43
2022-10-06T05:47:42.326Z,11.07
2022-10-06T05:50:31.002Z,12.43
2022-10-06T05:53:14.104Z,13.23
2022-10-06T05:56:03.056Z,11.80
2022-10-06T05:58:56.287Z,11.63
2022-10-06T06:01:50.127Z,11.82
2022-10-06T06:04:59.860Z,11.75
2022-10-06T06:07:49.001Z,10.30
2022-10-06T06:10:31.274Z,10.88
2022-10-06T06:13:21.006Z,11.27
2022-10-06T06:16:13.323Z,10.95
2022-10-06T06:19:02.086Z,10.00
2022-10-06T06:21:47.288Z,10.43
2022-10-06T06:24:36.007Z,10.68
2022-10-06T06:27:19.308Z,11.40
2022-10-06T06:30:09.066Z,10.82
2022-10-06T06:32:52.361Z,11.75
2022-10-06T06:35:42.044Z,11.80
2022-10-06T06:38:25.378Z,10.02
2022-10-06T06:41:21.287Z,11.30
2022-10-06T06:44:15.155Z,12.05
2022-10-06T06:47:14.002Z,12.35
2022-10-06T06:49:56.424Z,11.10
2022-10-06T06:52:46.101Z,11.93
2022-10-06T06:55:28.317Z,11.13
2022-10-06T06:58:18.005Z,11.10
2022-10-06T07:01:01.312Z,10.70
2022-10-06T07:03:57.612Z,11.35
2022-10-06T07:07:05.869Z,10.23
2022-10-06T07:09:56.019Z,10.75
2022-10-06T07:12:48.000Z,11.35
2022-10-06T07:15:54.523Z,11.85
2022-10-06T07:18:54.991Z,11.48
2022-10-06T07:22:02.008Z,10.55
2022-10-06T07:25:02.891Z,10.68
2022-10-06T07:28:01.101Z,10.85
2022-10-06T07:30:47.313Z,10.88
2022-10-06T07:33:39.058Z,11.77
2022-10-06T07:36:23.031Z,11.73
2022-10-06T07:39:12.076Z,11.45
2022-10-06T07:41:54.347Z,11.73
2022-10-06T07:44:44.020Z,11.98
2022-10-06T07:47:26.280Z,11.52
2022-10-06T07:50:15.980Z,11.07
2022-10-06T07:52:58.298Z,11.07
2022-10-06T07:55:52.019Z,11.32
2022-10-06T07:58:35.282Z,11.52
2022-10-06T08:01:27.125Z,11.68
2022-10-06T08:04:09.766Z,12.52
2022-10-06T08:09:54.305Z,12.07
2022-10-06T08:12:43.077Z,13.65
2022-10-06T08:15:31.314Z,12.18
2022-10-06T08:18:33.691Z,12.57
2022-10-06T08:21:29.083Z,12.07
2022-10-06T08:24:11.988Z,13.02
2022-10-06T08:27:00.979Z,13.57
2022-10-06T08:29:43.343Z,11.55
2022-10-06T08:32:33.060Z,14.13
2022-10-06T08:35:15.441Z,11.68
2022-10-06T08:38:04.093Z,12.45
2022-10-06T08:40:49.299Z,12.05
2022-10-06T08:43:41.096Z,13.30
2022-10-06T08:46:24.888Z,11.57
2022-10-06T08:49:15.079Z,12.52
2022-10-06T08:52:22.361Z,11.82
2022-10-06T08:55:34.999Z,12.15
2022-10-06T08:58:54.916Z,12.73
2022-10-06T09:01:53.106Z,12.95
2022-10-06T09:04:46.935Z,12.32
2022-10-06T09:08:25.013Z,12.57
2022-10-06T09:11:31.078Z,13.18
2022-10-06T09:14:26.838Z,11.75
2022-10-06T09:17:24.000Z,12.38
2022-10-06T09:20:12.322Z,12.65
2022-10-06T09:23:05.071Z,14.57
2022-10-06T09:25:47.280Z,12.98
2022-10-06T09:28:36.101Z,12.75
2022-10-06T09:31:39.372Z,12.02
2022-10-06T09:34:37.093Z,11.80
2022-10-06T09:37:20.322Z,12.13
2022-10-06T09:42:54.611Z,12.52
2022-10-06T09:45:43.071Z,11.68
2022-10-06T09:48:31.299Z,13.35
2022-10-06T09:51:20.056Z,12.18
2022-10-06T09:54:31.416Z,12.25
2022-10-06T09:57:34.004Z,13.40
2022-10-06T10:00:41.390Z,11.80
2022-10-06T10:03:33.992Z,11.88
2022-10-06T10:06:37.287Z,12.70
2022-10-06T10:09:29.028Z,12.65
2022-10-06T10:12:31.988Z,12.65
2022-10-06T10:15:20.027Z,12.07
2022-10-06T10:18:14.502Z,12.38
2022-10-06T10:21:05.015Z,13.30
2022-10-06T10:24:03.456Z,12.57
2022-10-06T10:27:02.030Z,13.02
2022-10-06T10:29:53.346Z,11.93
2022-10-06T10:33:05.022Z,12.35
2022-10-06T10:35:59.009Z,12.77
2022-10-06T10:38:46.320Z,12.90
2022-10-06T10:41:42.994Z,12.27
2022-10-06T10:44:36.314Z,13.27
2022-10-06T10:47:46.014Z,13.27
2022-10-06T10:50:37.414Z,14.18
2022-10-06T10:53:29.010Z,14.23
2022-10-06T10:56:13.330Z,14.48
2022-10-06T10:59:15.005Z,15.23
2022-10-06T11:02:27.481Z,15.10
2022-10-06T11:05:50.876Z,13.52
2022-10-06T11:09:18.057Z,14.40
2022-10-06T11:12:25.302Z,14.15
2022-10-06T11:15:20.022Z,14.85
2022-10-06T11:18:09.298Z,14.88
2022-10-06T11:21:13.997Z,14.25
2022-10-06T11:24:18.473Z,14.38
2022-10-06T11:27:25.054Z,14.27
2022-10-06T11:30:10.308Z,14.90
2022-10-06T11:33:08.977Z,14.82
2022-10-06T11:35:53.273Z,14.15
2022-10-06T11:38:50.020Z,14.45
2022-10-06T11:41:41.565Z,14.43
2022-10-06T11:44:55.006Z,14.52
2022-10-06T11:50:46.081Z,13.05
2022-10-06T11:53:40.586Z,14.35
2022-10-06T11:56:29.023Z,14.30
2022-10-06T11:59:21.288Z,14.60
2022-10-06T12:02:10.153Z,14.15
2022-10-06T12:05:54.894Z,14.07
2022-10-06T12:08:48.012Z,16.90
2022-10-06T12:11:48.756Z,16.15
2022-10-06T12:17:59.348Z,18.42
2022-10-06T12:21:06.010Z,16.17
2022-10-06T12:24:11.037Z,16.95
2022-10-06T12:27:16.061Z,17.30
2022-10-06T12:30:15.125Z,16.95
2022-10-06T12:33:06.931Z,17.02
2022-10-06T12:35:50.136Z,17.40
2022-10-06T12:38:48.305Z,19.30
2022-10-06T12:42:03.129Z,19.15
2022-10-06T12:44:56.126Z,20.20
2022-10-06T12:47:46.056Z,21.40
2022-10-06T12:50:37.004Z,20.63
2022-10-06T12:53:33.930Z,21.48
2022-10-06T12:56:36.074Z,22.92
2022-10-06T12:59:49.996Z,23.15
2022-10-06T13:05:21.019Z,21.65
2022-10-06T13:08:17.145Z,21.33
2022-10-06T13:11:35.366Z,20.98
2022-10-06T13:14:22.105Z,22.10
2022-10-06T13:17:10.361Z,23.55
2022-10-06T13:19:53.050Z,20.65
2022-10-06T13:22:42.538Z,20.80
2022-10-06T13:25:24.987Z,19.88
2022-10-06T13:28:14.380Z,20.27
2022-10-06T13:31:29.095Z,21.85
2022-10-06T13:34:28.175Z,21.80
2022-10-06T13:37:11.072Z,22.08
2022-10-06T13:40:00.847Z,23.30
2022-10-06T13:42:43.987Z,21.20
2022-10-06T13:48:23.089Z,21.05
2022-10-06T13:51:12.368Z,20.63
2022-10-06T13:53:58.063Z,21.83
2022-10-06T13:56:48.328Z,21.55
2022-10-06T13:59:41.998Z,22.25
2022-10-06T14:02:38.617Z,22.17
2022-10-06T14:05:52.040Z,20.52
2022-10-06T14:08:41.548Z,22.80
2022-10-06T14:11:33.135Z,20.65
2022-10-06T14:14:26.413Z,22.17
2022-10-06T14:17:08.977Z,23.52
2022-10-06T14:20:05.088Z,21.75
2022-10-06T14:22:54.536Z,23.40
2022-10-06T14:25:37.109Z,22.98
2022-10-06T14:31:13.477Z,22.70
2022-10-06T14:34:04.539Z,23.20
2022-10-06T14:36:47.084Z,23.48
2022-10-06T14:39:36.347Z,23.42
2022-10-06T14:42:20.109Z,22.15
2022-10-06T14:45:10.085Z,23.40
2022-10-06T14:47:54.042Z,22.55
2022-10-06T14:50:44.800Z,23.25
2022-10-06T14:53:28.069Z,23.80
2022-10-06T14:56:26.041Z,23.45
2022-10-06T14:59:20.009Z,24.02
2022-10-06T15:02:09.054Z,24.02
2022-10-06T15:04:58.358Z,23.10
2022-10-06T15:07:59.054Z,22.98
2022-10-06T15:10:47.410Z,23.52
2022-10-06T15:13:30.008Z,24.80
2022-10-06T15:16:19.695Z,23.58
2022-10-06T15:19:04.368Z,22.40
2022-10-06T15:21:53.334Z,23.30
2022-10-06T15:24:36.106Z,24.05
2022-10-06T15:27:42.561Z,25.17
2022-10-06T15:30:25.089Z,23.27
2022-10-06T15:33:14.373Z,23.05
2022-10-06T15:36:22.334Z,22.80
2022-10-06T15:39:33.370Z,23.15
2022-10-06T15:42:16.044Z,22.67
2022-10-06T15:45:07.626Z,22.13
2022-10-06T15:47:52.113Z,21.85
2022-10-06T15:50:41.851Z,21.33
2022-10-06T15:53:25.000Z,21.92
2022-10-06T15:56:20.883Z,22.75
2022-10-06T15:59:10.118Z,22.83
2022-10-06T16:01:57.425Z,24.27
2022-10-06T16:04:46.982Z,22.48
2022-10-06T16:07:32.431Z,22.67
2022-10-06T16:10:21.050Z,24.13
2022-10-06T16:13:03.510Z,22.90
2022-10-06T16:16:04.208Z,22.23
2022-10-06T16:18:46.482Z,22.90
2022-10-06T16:21:37.134Z,24.48
2022-10-06T16:24:19.535Z,24.00
2022-10-06T16:27:08.130Z,23.80
2022-10-06T16:29:50.437Z,23.40
2022-10-06T16:32:39.267Z,23.17
2022-10-06T16:35:22.539Z,24.25
2022-10-06T16:38:11.035Z,24.05
2022-10-06T16:41:10.329Z,24.77
2022-10-06T16:44:01.082Z,24.05
2022-10-06T16:46:43.429Z,26.00
2022-10-06T16:49:32.427Z,23.95
2022-10-06T16:52:14.350Z,25.67
2022-10-06T16:55:04.232Z,25.15
2022-10-06T16:57:52.452Z,25.50
2022-10-06T17:00:35.133Z,25.27
2022-10-06T17:03:23.391Z,25.02
2022-10-06T17:06:18.082Z,25.85
2022-10-06T17:09:09.353Z,25.75
2022-10-06T17:11:55.016Z,26.48
2022-10-06T17:14:43.321Z,26.38
2022-10-06T17:17:26.045Z,25.80
2022-10-06T17:20:09.083Z,26.55
2022-10-06T17:22:58.051Z,25.40
2022-10-06T17:25:47.476Z,26.65
2022-10-06T17:28:30.048Z,25.85
2022-10-06T17:31:19.038Z,26.40
2022-10-06T17:34:08.044Z,25.80
2022-10-06T17:36:58.969Z,26.73
2022-10-06T17:39:46.172Z,27.45
2022-10-06T17:42:36.101Z,27.98
2022-10-06T17:45:21.401Z,27.65
2022-10-06T17:48:11.028Z,27.35
2022-10-06T17:51:05.427Z,26.30
2022-10-06T17:53:59.000Z,27.08
2022-10-06T17:56:54.947Z,26.85
2022-10-06T17:59:43.996Z,26.63
2022-10-06T18:02:26.502Z,26.45
2022-10-06T18:05:14.977Z,27.08
2022-10-06T18:07:59.656Z,27.48
2022-10-06T18:11:13.977Z,27.23
2022-10-06T18:13:56.452Z,27.13
2022-10-06T18:16:52.075Z,27.30
2022-10-06T18:19:39.458Z,28.27
2022-10-06T18:22:27.990Z,26.20
2022-10-06T18:25:11.009Z,26.75
2022-10-06T18:27:59.999Z,23.63
2022-10-06T18:30:42.318Z,22.48
2022-10-06T18:36:39.954Z,21.95
2022-10-06T18:39:22.170Z,22.50
2022-10-06T18:42:13.065Z,22.50
2022-10-06T18:45:26.033Z,21.63
2022-10-06T18:48:27.816Z,22.38
2022-10-06T18:51:16.972Z,23.70
2022-10-06T18:54:05.304Z,22.35
2022-10-06T18:56:57.963Z,22.50
2022-10-06T18:59:47.978Z,22.45
2022-10-06T19:02:30.416Z,23.27
2022-10-06T19:05:18.954Z,22.50
2022-10-06T19:08:02.807Z,23.27
2022-10-06T19:11:11.986Z,23.13
2022-10-06T19:14:01.019Z,23.35
2022-10-06T19:16:54.015Z,23.42
2022-10-06T19:19:38.250Z,23.23
2022-10-06T19:22:31.966Z,23.23
2022-10-06T19:25:14.965Z,23.08
2022-10-06T19:28:03.997Z,23.83
2022-10-06T19:30:48.038Z,22.90
2022-10-06T19:33:39.973Z,23.23
2022-10-06T19:36:23.253Z,22.02
2022-10-06T19:39:17.434Z,22.00
2022-10-06T19:45:07.052Z,21.63
2022-10-06T19:47:49.269Z,22.08
2022-10-06T19:50:38.016Z,22.20
2022-10-06T19:53:20.328Z,20.52
2022-10-06T19:56:17.028Z,21.05
2022-10-06T19:59:07.236Z,20.45
2022-10-06T20:01:50.046Z,19.67
2022-10-06T20:04:40.644Z,20.38
2022-10-06T20:07:22.964Z,19.25
2022-10-06T20:10:12.047Z,19.90
2022-10-06T20:13:01.027Z,19.23
2022-10-06T20:15:43.162Z,18.23
2022-10-06T20:18:33.032Z,28.17
2022-10-06T20:21:26.239Z,30.27
2022-10-06T20:24:12.135Z,32.08
2022-10-06T20:26:55.115Z,29.40
2022-10-06T20:29:44.972Z,33.58
2022-10-06T20:32:33.962Z,30.95
2022-10-06T20:35:16.315Z,28.80
2022-10-06T20:38:04.978Z,26.20
2022-10-06T20:40:51.240Z,30.30
2022-10-06T20:43:40.967Z,28.33
2022-10-06T20:46:29.932Z,27.13
2022-10-06T20:49:29.945Z,25.10
2022-10-06T20:52:21.897Z,24.23
2022-10-06T20:55:13.961Z,24.13
2022-10-06T20:58:08.982Z,23.02
2022-10-06T21:00:57.319Z,21.48
2022-10-06T21:03:40.051Z,21.88
2022-10-06T21:06:31.257Z,21.55
2022-10-06T21:09:15.984Z,20.88
2022-10-06T21:11:58.516Z,20.38
2022-10-06T21:14:50.030Z,19.60
2022-10-06T21:17:38.300Z,20.08
2022-10-06T21:20:20.987Z,20.50
2022-10-06T21:23:04.212Z,20.58
2022-10-06T21:25:53.045Z,20.73
2022-10-06T21:28:43.407Z,20.40
2022-10-06T21:31:28.086Z,20.25
2022-10-06T21:34:11.472Z,20.13
2022-10-06T21:37:00.015Z,20.67
2022-10-06T21:39:50.055Z,20.45
2022-10-06T21:42:32.303Z,20.35
2022-10-06T21:45:24.220Z,20.58
2022-10-06T21:48:07.264Z,20.75
2022-10-06T21:51:02.008Z,22.25
2022-10-06T21:53:44.248Z,20.85
2022-10-06T21:56:34.056Z,21.25
2022-10-06T21:59:37.832Z,23.27
2022-10-06T22:02:27.050Z,21.95
2022-10-06T22:05:15.976Z,20.48
2022-10-06T22:07:58.154Z,18.85
2022-10-06T22:10:46.986Z,20.17
2022-10-06T22:13:37.238Z,19.90
2022-10-06T22:16:23.054Z,19.50
2022-10-06T22:19:14.332Z,18.65
2022-10-06T22:21:57.036Z,18.65
2022-10-06T22:24:45.270Z,19.50
2022-10-06T22:27:26.974Z,20.60
2022-10-06T22:30:15.989Z,19.85
2022-10-06T22:32:58.260Z,19.20
2022-10-06T22:35:46.989Z,19.20
2022-10-06T22:38:29.309Z,18.67
2022-10-06T22:41:20.988Z,18.15
2022-10-06T22:44:05.273Z,18.67
2022-10-06T22:46:55.379Z,18.08
2022-10-06T22:49:37.278Z,17.27
2022-10-06T22:52:26.033Z,17.73
2022-10-06T22:55:08.266Z,17.92
2022-10-06T22:58:02.983Z,17.60
2022-10-06T23:00:46.260Z,17.70
2022-10-06T23:03:35.187Z,17.73
2022-10-06T23:06:26.291Z,18.20
2022-10-06T23:09:09.033Z,20.08
2022-10-06T23:11:57.266Z,17.75
2022-10-06T23:14:38.975Z,19.27
2022-10-06T23:17:21.173Z,18.10
2022-10-06T23:20:09.982Z,19.65
2022-10-06T23:22:58.366Z,18.48
2022-10-06T23:25:44.981Z,19.55
2022-10-06T23:28:27.220Z,18.38
2022-10-06T23:31:15.968Z,19.98
2022-10-06T23:34:04.979Z,21.55
